sensor_id;sensor_type;location;lat;lon;timestamp;P1;durP1;ratioP1;P2;durP2;ratioP2
55136;SDS011;41032;47.818;-3.732;2022-10-26T00:01:06;11.30;;;3.13;;
55136;SDS011;41032;47.818;-3.732;2022-10-26T00:03:36;6.50;;;2.40;;
55136;SDS011;41032;47.818;-3.732;2022-10-26T00:06:08;10.63;;;2.90;;
55136;SDS011;41032;47.818;-3.732;2022-10-26T00:08:38;8.35;;;2.88;;
55136;SDS011;41032;47.818;-3.732;2022-10-26T00:11:09;7.45;;;2.75;;
55136;SDS011;41032;47.818;-3.732;2022-10-26T00:13:38;7.22;;;2.42;;
55136;SDS011;41032;47.818;-3.732;2022-10-26T00:16:08;8.57;;;3.13;;
55136;SDS011;41032;47.818;-3.732;2022-10-26T00:18:38;9.23;;;3.03;;
55136;SDS011;41032;47.818;-3.732;2022-10-26T00:21:06;7.13;;;2.72;;
55136;SDS011;41032;47.818;-3.732;2022-10-26T00:23:35;9.50;;;3.00;;
55136;SDS011;41032;47.818;-3.732;2022-10-26T00:26:04;8.80;;;2.83;;
55136;SDS011;41032;47.818;-3.732;2022-10-26T00:28:33;8.48;;;2.72;;
55136;SDS011;41032;47.818;-3.732;2022-10-26T00:31:02;9.98;;;2.28;;
55136;SDS011;41032;47.818;-3.732;2022-10-26T00:33:33;8.40;;;2.97;;
55136;SDS011;41032;47.818;-3.732;2022-10-26T00:36:02;6.63;;;2.58;;
55136;SDS011;41032;47.818;-3.732;2022-10-26T00:38:30;9.70;;;3.05;;
55136;SDS011;41032;47.818;-3.732;2022-10-26T00:41:00;9.05;;;3.05;;
55136;SDS011;41032;47.818;-3.732;2022-10-26T00:45:56;7.57;;;2.35;;
55136;SDS011;41032;47.818;-3.732;2022-10-26T00:48:27;11.02;;;3.28;;
55136;SDS011;41032;47.818;-3.732;2022-10-26T00:50:58;8.77;;;2.55;;
55136;SDS011;41032;47.818;-3.732;2022-10-26T00:53:29;9.40;;;2.83;;
55136;SDS011;41032;47.818;-3.732;2022-10-26T00:55:59;8.90;;;2.28;;
55136;SDS011;41032;47.818;-3.732;2022-10-26T00:58:28;10.25;;;2.60;;
55136;SDS011;41032;47.818;-3.732;2022-10-26T01:00:57;9.88;;;3.00;;
55136;SDS011;41032;47.818;-3.732;2022-10-26T01:03:26;9.27;;;2.72;;
55136;SDS011;41032;47.818;-3.732;2022-10-26T01:05:55;8.13;;;2.20;;
55136;SDS011;41032;47.818;-3.732;2022-10-26T01:08:24;9.05;;;2.63;;
55136;SDS011;41032;47.818;-3.732;2022-10-26T01:10:53;8.38;;;2.88;;
55136;SDS011;41032;47.818;-3.732;2022-10-26T01:13:24;8.00;;;2.28;;
55136;SDS011;41032;47.818;-3.732;2022-10-26T01:21:46;8.57;;;2.13;;
55136;SDS011;41032;47.818;-3.732;2022-10-26T01:30:25;11.35;;;3.40;;
55136;SDS011;41032;47.818;-3.732;2022-10-26T01:35:45;7.00;;;2.33;;
55136;SDS011;41032;47.818;-3.732;2022-10-26T01:41:25;8.10;;;2.50;;
55136;SDS011;41032;47.818;-3.732;2022-10-26T01:44:10;11.13;;;2.95;;
55136;SDS011;41032;47.818;-3.732;2022-10-26T01:46:45;8.18;;;2.58;;
55136;SDS011;41032;47.818;-3.732;2022-10-26T01:49:16;10.35;;;2.70;;
55136;SDS011;41032;47.818;-3.732;2022-10-26T01:51:49;10.95;;;3.30;;
55136;SDS011;41032;47.818;-3.732;2022-10-26T01:54:16;9.32;;;2.67;;
55136;SDS011;41032;47.818;-3.732;2022-10-26T01:56:47;13.43;;;3.40;;
55136;SDS011;41032;47.818;-3.732;2022-10-26T01:59:18;9.40;;;2.22;;
55136;SDS011;41032;47.818;-3.732;2022-10-26T02:02:09;12.27;;;2.78;;
55136;SDS011;41032;47.818;-3.732;2022-10-26T02:10:42;9.27;;;2.65;;
55136;SDS011;41032;47.818;-3.732;2022-10-26T02:18:35;5.70;;;1.98;;
55136;SDS011;41032;47.818;-3.732;2022-10-26T02:21:10;9.48;;;2.33;;
55136;SDS011;41032;47.818;-3.732;2022-10-26T02:23:42;10.60;;;2.85;;
55136;SDS011;41032;47.818;-3.732;2022-10-26T02:26:12;8.38;;;2.70;;
55136;SDS011;41032;47.818;-3.732;2022-10-26T02:28:43;8.18;;;2.45;;
55136;SDS011;41032;47.818;-3.732;2022-10-26T02:31:14;7.32;;;2.38;;
55136;SDS011;41032;47.818;-3.732;2022-10-26T02:33:45;8.27;;;2.17;;
55136;SDS011;41032;47.818;-3.732;2022-10-26T02:36:17;8.18;;;2.05;;
55136;SDS011;41032;47.818;-3.732;2022-10-26T02:38:48;8.15;;;2.50;;
55136;SDS011;41032;47.818;-3.732;2022-10-26T02:41:20;8.52;;;2.35;;
55136;SDS011;41032;47.818;-3.732;2022-10-26T02:43:53;7.57;;;2.22;;
55136;SDS011;41032;47.818;-3.732;2022-10-26T02:46:27;7.32;;;2.20;;
55136;SDS011;41032;47.818;-3.732;2022-10-26T02:48:55;6.28;;;2.13;;
55136;SDS011;41032;47.818;-3.732;2022-10-26T02:56:55;11.95;;;3.03;;
55136;SDS011;41032;47.818;-3.732;2022-10-26T02:59:27;11.48;;;3.45;;
55136;SDS011;41032;47.818;-3.732;2022-10-26T03:01:57;10.38;;;2.10;;
55136;SDS011;41032;47.818;-3.732;2022-10-26T03:04:29;9.88;;;2.28;;
55136;SDS011;41032;47.818;-3.732;2022-10-26T03:06:59;9.35;;;2.85;;
55136;SDS011;41032;47.818;-3.732;2022-10-26T03:09:27;9.38;;;2.38;;
55136;SDS011;41032;47.818;-3.732;2022-10-26T03:11:56;9.23;;;2.78;;
55136;SDS011;41032;47.818;-3.732;2022-10-26T03:14:24;5.60;;;1.88;;
55136;SDS011;41032;47.818;-3.732;2022-10-26T03:16:53;7.10;;;2.38;;
55136;SDS011;41032;47.818;-3.732;2022-10-26T03:19:21;9.27;;;2.47;;
55136;SDS011;41032;47.818;-3.732;2022-10-26T03:21:50;6.53;;;2.22;;
55136;SDS011;41032;47.818;-3.732;2022-10-26T03:24:19;8.45;;;2.50;;
55136;SDS011;41032;47.818;-3.732;2022-10-26T03:26:47;8.88;;;2.78;;
55136;SDS011;41032;47.818;-3.732;2022-10-26T03:29:16;10.88;;;3.70;;
55136;SDS011;41032;47.818;-3.732;2022-10-26T03:31:44;8.77;;;2.30;;
55136;SDS011;41032;47.818;-3.732;2022-10-26T03:34:13;9.57;;;2.60;;
55136;SDS011;41032;47.818;-3.732;2022-10-26T03:36:42;9.25;;;2.72;;
55136;SDS011;41032;47.818;-3.732;2022-10-26T03:39:10;10.50;;;2.63;;
55136;SDS011;41032;47.818;-3.732;2022-10-26T03:41:40;8.15;;;2.65;;
55136;SDS011;41032;47.818;-3.732;2022-10-26T03:44:09;6.70;;;2.08;;
55136;SDS011;41032;47.818;-3.732;2022-10-26T03:46:38;7.50;;;2.10;;
55136;SDS011;41032;47.818;-3.732;2022-10-26T03:49:06;7.38;;;2.30;;
55136;SDS011;41032;47.818;-3.732;2022-10-26T03:51:35;10.60;;;3.00;;
55136;SDS011;41032;47.818;-3.732;2022-10-26T03:54:03;8.90;;;2.38;;
55136;SDS011;41032;47.818;-3.732;2022-10-26T03:56:33;7.88;;;2.00;;
55136;SDS011;41032;47.818;-3.732;2022-10-26T03:59:01;11.52;;;2.63;;
55136;SDS011;41032;47.818;-3.732;2022-10-26T04:01:30;12.43;;;3.88;;
55136;SDS011;41032;47.818;-3.732;2022-10-26T04:03:58;8.15;;;2.75;;
55136;SDS011;41032;47.818;-3.732;2022-10-26T04:06:26;6.13;;;1.92;;
55136;SDS011;41032;47.818;-3.732;2022-10-26T04:08:55;9.63;;;2.50;;
55136;SDS011;41032;47.818;-3.732;2022-10-26T04:11:28;8.57;;;2.50;;
55136;SDS011;41032;47.818;-3.732;2022-10-26T04:13:56;8.07;;;2.13;;
55136;SDS011;41032;47.818;-3.732;2022-10-26T04:16:25;9.02;;;2.63;;
55136;SDS011;41032;47.818;-3.732;2022-10-26T04:18:54;8.32;;;2.30;;
55136;SDS011;41032;47.818;-3.732;2022-10-26T04:21:23;10.65;;;2.92;;
55136;SDS011;41032;47.818;-3.732;2022-10-26T04:23:51;12.25;;;2.90;;
55136;SDS011;41032;47.818;-3.732;2022-10-26T04:26:20;9.32;;;2.38;;
55136;SDS011;41032;47.818;-3.732;2022-10-26T04:28:48;6.10;;;2.22;;
55136;SDS011;41032;47.818;-3.732;2022-10-26T04:31:17;8.48;;;2.25;;
55136;SDS011;41032;47.818;-3.732;2022-10-26T04:33:45;7.60;;;2.15;;
55136;SDS011;41032;47.818;-3.732;2022-10-26T04:36:14;10.48;;;2.53;;
55136;SDS011;41032;47.818;-3.732;2022-10-26T04:38:42;6.30;;;1.70;;
55136;SDS011;41032;47.818;-3.732;2022-10-26T04:41:11;5.68;;;1.90;;
55136;SDS011;41032;47.818;-3.732;2022-10-26T04:43:39;8.02;;;2.05;;
55136;SDS011;41032;47.818;-3.732;2022-10-26T04:46:08;7.70;;;2.10;;
55136;SDS011;41032;47.818;-3.732;2022-10-26T04:48:39;6.47;;;2.00;;
55136;SDS011;41032;47.818;-3.732;2022-10-26T04:51:07;8.25;;;2.20;;
55136;SDS011;41032;47.818;-3.732;2022-10-26T04:53:37;6.95;;;2.00;;
55136;SDS011;41032;47.818;-3.732;2022-10-26T04:56:05;8.85;;;2.17;;
55136;SDS011;41032;47.818;-3.732;2022-10-26T04:58:34;7.43;;;2.10;;
55136;SDS011;41032;47.818;-3.732;2022-10-26T05:01:03;7.95;;;2.60;;
55136;SDS011;41032;47.818;-3.732;2022-10-26T05:03:31;7.15;;;2.35;;
55136;SDS011;41032;47.818;-3.732;2022-10-26T05:06:00;9.60;;;2.83;;
55136;SDS011;41032;47.818;-3.732;2022-10-26T05:08:27;7.70;;;1.80;;
55136;SDS011;41032;47.818;-3.732;2022-10-26T05:10:57;8.60;;;2.05;;
55136;SDS011;41032;47.818;-3.732;2022-10-26T05:13:25;11.57;;;2.97;;
55136;SDS011;41032;47.818;-3.732;2022-10-26T05:15:52;11.60;;;2.42;;
55136;SDS011;41032;47.818;-3.732;2022-10-26T05:18:20;8.85;;;2.33;;
55136;SDS011;41032;47.818;-3.732;2022-10-26T05:20:51;8.98;;;2.42;;
55136;SDS011;41032;47.818;-3.732;2022-10-26T05:23:20;9.57;;;2.92;;
55136;SDS011;41032;47.818;-3.732;2022-10-26T05:25:48;7.15;;;2.00;;
55136;SDS011;41032;47.818;-3.732;2022-10-26T05:28:17;10.20;;;2.63;;
55136;SDS011;41032;47.818;-3.732;2022-10-26T05:30:45;9.45;;;2.60;;
55136;SDS011;41032;47.818;-3.732;2022-10-26T05:33:14;7.78;;;2.20;;
55136;SDS011;41032;47.818;-3.732;2022-10-26T05:35:43;10.18;;;2.63;;
55136;SDS011;41032;47.818;-3.732;2022-10-26T05:38:13;7.28;;;2.20;;
55136;SDS011;41032;47.818;-3.732;2022-10-26T05:40:48;5.25;;;2.17;;
55136;SDS011;41032;47.818;-3.732;2022-10-26T05:43:16;11.17;;;2.23;;
55136;SDS011;41032;47.818;-3.732;2022-10-26T05:45:45;10.00;;;2.90;;
55136;SDS011;41032;47.818;-3.732;2022-10-26T05:48:15;12.88;;;3.28;;
55136;SDS011;41032;47.818;-3.732;2022-10-26T05:50:44;9.85;;;2.47;;
55136;SDS011;41032;47.818;-3.732;2022-10-26T05:53:13;11.52;;;2.85;;
55136;SDS011;41032;47.818;-3.732;2022-10-26T05:55:42;11.52;;;3.20;;
55136;SDS011;41032;47.818;-3.732;2022-10-26T05:58:11;8.25;;;2.22;;
55136;SDS011;41032;47.818;-3.732;2022-10-26T06:04:00;10.18;;;3.00;;
55136;SDS011;41032;47.818;-3.732;2022-10-26T06:06:28;9.90;;;2.90;;
55136;SDS011;41032;47.818;-3.732;2022-10-26T06:09:03;9.02;;;2.75;;
55136;SDS011;41032;47.818;-3.732;2022-10-26T06:11:33;8.55;;;2.47;;
55136;SDS011;41032;47.818;-3.732;2022-10-26T06:14:01;13.48;;;3.03;;
55136;SDS011;41032;47.818;-3.732;2022-10-26T06:16:32;9.35;;;2.72;;
55136;SDS011;41032;47.818;-3.732;2022-10-26T06:20:08;11.15;;;2.60;;
55136;SDS011;41032;47.818;-3.732;2022-10-26T06:25:08;11.50;;;3.10;;
55136;SDS011;41032;47.818;-3.732;2022-10-26T06:30:29;6.32;;;2.28;;
55136;SDS011;41032;47.818;-3.732;2022-10-26T06:32:58;8.65;;;2.53;;
55136;SDS011;41032;47.818;-3.732;2022-10-26T06:38:16;12.07;;;2.50;;
55136;SDS011;41032;47.818;-3.732;2022-10-26T06:40:48;9.27;;;2.80;;
55136;SDS011;41032;47.818;-3.732;2022-10-26T06:43:39;9.32;;;2.83;;
55136;SDS011;41032;47.818;-3.732;2022-10-26T06:46:13;7.72;;;2.35;;
55136;SDS011;41032;47.818;-3.732;2022-10-26T06:51:28;11.02;;;2.55;;
55136;SDS011;41032;47.818;-3.732;2022-10-26T06:53:59;8.15;;;2.30;;
55136;SDS011;41032;47.818;-3.732;2022-10-26T06:56:39;9.30;;;2.38;;
55136;SDS011;41032;47.818;-3.732;2022-10-26T06:59:08;7.00;;;2.00;;
55136;SDS011;41032;47.818;-3.732;2022-10-26T07:01:43;8.80;;;2.30;;
55136;SDS011;41032;47.818;-3.732;2022-10-26T07:04:12;6.05;;;2.05;;
55136;SDS011;41032;47.818;-3.732;2022-10-26T07:06:40;8.07;;;2.60;;
55136;SDS011;41032;47.818;-3.732;2022-10-26T07:09:08;7.93;;;2.35;;
55136;SDS011;41032;47.818;-3.732;2022-10-26T07:11:37;8.10;;;2.60;;
55136;SDS011;41032;47.818;-3.732;2022-10-26T07:14:05;10.10;;;2.55;;
55136;SDS011;41032;47.818;-3.732;2022-10-26T07:16:34;9.55;;;2.63;;
55136;SDS011;41032;47.818;-3.732;2022-10-26T07:19:02;9.40;;;2.80;;
55136;SDS011;41032;47.818;-3.732;2022-10-26T07:21:32;5.13;;;1.90;;
55136;SDS011;41032;47.818;-3.732;2022-10-26T07:24:00;6.93;;;2.08;;
55136;SDS011;41032;47.818;-3.732;2022-10-26T07:26:29;8.50;;;2.50;;
55136;SDS011;41032;47.818;-3.732;2022-10-26T07:28:57;8.38;;;2.90;;
55136;SDS011;41032;47.818;-3.732;2022-10-26T07:31:26;6.40;;;2.08;;
55136;SDS011;41032;47.818;-3.732;2022-10-26T07:33:54;7.95;;;1.95;;
55136;SDS011;41032;47.818;-3.732;2022-10-26T07:36:23;9.10;;;2.15;;
55136;SDS011;41032;47.818;-3.732;2022-10-26T07:38:51;9.27;;;2.15;;
55136;SDS011;41032;47.818;-3.732;2022-10-26T07:41:20;5.65;;;1.80;;
55136;SDS011;41032;47.818;-3.732;2022-10-26T07:43:49;6.03;;;2.05;;
55136;SDS011;41032;47.818;-3.732;2022-10-26T07:46:17;9.13;;;2.00;;
55136;SDS011;41032;47.818;-3.732;2022-10-26T07:48:46;9.27;;;2.60;;
55136;SDS011;41032;47.818;-3.732;2022-10-26T07:51:15;8.27;;;2.15;;
55136;SDS011;41032;47.818;-3.732;2022-10-26T07:53:43;7.95;;;2.20;;
55136;SDS011;41032;47.818;-3.732;2022-10-26T07:56:13;5.53;;;1.88;;
55136;SDS011;41032;47.818;-3.732;2022-10-26T07:58:41;10.20;;;2.60;;
55136;SDS011;41032;47.818;-3.732;2022-10-26T08:01:11;9.40;;;2.65;;
55136;SDS011;41032;47.818;-3.732;2022-10-26T08:03:40;6.28;;;2.10;;
55136;SDS011;41032;47.818;-3.732;2022-10-26T08:06:10;6.32;;;2.08;;
55136;SDS011;41032;47.818;-3.732;2022-10-26T08:08:38;6.72;;;2.25;;
55136;SDS011;41032;47.818;-3.732;2022-10-26T08:11:07;7.75;;;2.30;;
55136;SDS011;41032;47.818;-3.732;2022-10-26T08:13:35;7.85;;;2.55;;
55136;SDS011;41032;47.818;-3.732;2022-10-26T08:16:04;8.05;;;2.20;;
55136;SDS011;41032;47.818;-3.732;2022-10-26T08:18:32;10.05;;;2.58;;
55136;SDS011;41032;47.818;-3.732;2022-10-26T08:21:05;7.63;;;2.47;;
55136;SDS011;41032;47.818;-3.732;2022-10-26T08:23:34;9.82;;;2.78;;
55136;SDS011;41032;47.818;-3.732;2022-10-26T08:26:02;7.93;;;2.25;;
55136;SDS011;41032;47.818;-3.732;2022-10-26T08:28:31;8.35;;;2.78;;
55136;SDS011;41032;47.818;-3.732;2022-10-26T08:31:00;7.47;;;2.08;;
55136;SDS011;41032;47.818;-3.732;2022-10-26T08:33:28;9.38;;;2.30;;
55136;SDS011;41032;47.818;-3.732;2022-10-26T08:35:57;10.13;;;2.25;;
55136;SDS011;41032;47.818;-3.732;2022-10-26T08:38:27;9.63;;;2.25;;
55136;SDS011;41032;47.818;-3.732;2022-10-26T08:40:56;8.10;;;2.35;;
55136;SDS011;41032;47.818;-3.732;2022-10-26T08:43:26;6.40;;;2.20;;
55136;SDS011;41032;47.818;-3.732;2022-10-26T08:46:19;6.32;;;1.95;;
55136;SDS011;41032;47.818;-3.732;2022-10-26T08:48:55;7.70;;;2.47;;
55136;SDS011;41032;47.818;-3.732;2022-10-26T08:51:28;9.13;;;2.58;;
55136;SDS011;41032;47.818;-3.732;2022-10-26T08:57:27;11.48;;;2.78;;
55136;SDS011;41032;47.818;-3.732;2022-10-26T08:59:55;7.63;;;2.42;;
55136;SDS011;41032;47.818;-3.732;2022-10-26T09:02:26;9.07;;;2.55;;
55136;SDS011;41032;47.818;-3.732;2022-10-26T09:04:56;7.90;;;2.63;;
55136;SDS011;41032;47.818;-3.732;2022-10-26T09:18:40;8.77;;;2.50;;
55136;SDS011;41032;47.818;-3.732;2022-10-26T09:21:42;9.32;;;2.67;;
55136;SDS011;41032;47.818;-3.732;2022-10-26T09:24:35;8.38;;;2.45;;
55136;SDS011;41032;47.818;-3.732;2022-10-26T09:29:55;7.95;;;2.60;;
55136;SDS011;41032;47.818;-3.732;2022-10-26T09:32:39;7.80;;;2.05;;
55136;SDS011;41032;47.818;-3.732;2022-10-26T09:35:52;6.68;;;2.40;;
55136;SDS011;41032;47.818;-3.732;2022-10-26T09:38:02;10.23;;;2.08;;
55136;SDS011;41032;47.818;-3.732;2022-10-26T09:40:46;6.05;;;2.00;;
55136;SDS011;41032;47.818;-3.732;2022-10-26T09:43:23;10.48;;;2.55;;
55136;SDS011;41032;47.818;-3.732;2022-10-26T09:45:55;6.13;;;2.50;;
55136;SDS011;41032;47.818;-3.732;2022-10-26T09:51:12;7.47;;;2.33;;
55136;SDS011;41032;47.818;-3.732;2022-10-26T09:53:43;7.00;;;2.47;;
55136;SDS011;41032;47.818;-3.732;2022-10-26T09:56:12;7.25;;;2.35;;
55136;SDS011;41032;47.818;-3.732;2022-10-26T09:58:41;8.68;;;2.47;;
55136;SDS011;41032;47.818;-3.732;2022-10-26T10:01:21;8.88;;;2.38;;
55136;SDS011;41032;47.818;-3.732;2022-10-26T10:06:39;11.02;;;2.35;;
55136;SDS011;41032;47.818;-3.732;2022-10-26T10:11:43;13.48;;;2.90;;
55136;SDS011;41032;47.818;-3.732;2022-10-26T10:14:27;11.05;;;2.67;;
55136;SDS011;41032;47.818;-3.732;2022-10-26T10:17:00;10.32;;;2.28;;
55136;SDS011;41032;47.818;-3.732;2022-10-26T10:19:31;7.25;;;2.47;;
55136;SDS011;41032;47.818;-3.732;2022-10-26T10:22:00;8.05;;;2.38;;
55136;SDS011;41032;47.818;-3.732;2022-10-26T10:24:39;7.57;;;2.42;;
55136;SDS011;41032;47.818;-3.732;2022-10-26T10:29:41;9.38;;;2.47;;
55136;SDS011;41032;47.818;-3.732;2022-10-26T10:32:30;10.50;;;2.88;;
55136;SDS011;41032;47.818;-3.732;2022-10-26T10:35:00;10.75;;;3.13;;
55136;SDS011;41032;47.818;-3.732;2022-10-26T10:37:29;8.88;;;2.58;;
55136;SDS011;41032;47.818;-3.732;2022-10-26T10:40:00;9.20;;;2.47;;
55136;SDS011;41032;47.818;-3.732;2022-10-26T10:42:33;9.57;;;2.63;;
55136;SDS011;41032;47.818;-3.732;2022-10-26T10:45:02;7.10;;;2.25;;
55136;SDS011;41032;47.818;-3.732;2022-10-26T10:47:32;6.60;;;2.10;;
55136;SDS011;41032;47.818;-3.732;2022-10-26T10:50:04;10.80;;;2.83;;
55136;SDS011;41032;47.818;-3.732;2022-10-26T10:52:35;11.38;;;3.05;;
55136;SDS011;41032;47.818;-3.732;2022-10-26T11:00:27;11.07;;;2.58;;
55136;SDS011;41032;47.818;-3.732;2022-10-26T11:03:45;13.20;;;3.15;;
55136;SDS011;41032;47.818;-3.732;2022-10-26T11:05:55;10.02;;;2.58;;
55136;SDS011;41032;47.818;-3.732;2022-10-26T11:08:36;9.90;;;2.42;;
55136;SDS011;41032;47.818;-3.732;2022-10-26T11:11:35;12.07;;;2.88;;
55136;SDS011;41032;47.818;-3.732;2022-10-26T11:16:37;9.00;;;3.20;;
55136;SDS011;41032;47.818;-3.732;2022-10-26T11:19:14;7.57;;;2.50;;
55136;SDS011;41032;47.818;-3.732;2022-10-26T11:21:47;9.00;;;2.97;;
55136;SDS011;41032;47.818;-3.732;2022-10-26T11:26:53;6.18;;;2.10;;
55136;SDS011;41032;47.818;-3.732;2022-10-26T11:29:24;10.35;;;2.70;;
55136;SDS011;41032;47.818;-3.732;2022-10-26T11:32:02;6.63;;;2.13;;
55136;SDS011;41032;47.818;-3.732;2022-10-26T11:34:43;7.85;;;2.63;;
55136;SDS011;41032;47.818;-3.732;2022-10-26T11:37:33;8.85;;;2.60;;
55136;SDS011;41032;47.818;-3.732;2022-10-26T11:42:43;8.80;;;2.75;;
55136;SDS011;41032;47.818;-3.732;2022-10-26T11:45:21;9.60;;;3.05;;
55136;SDS011;41032;47.818;-3.732;2022-10-26T11:47:53;9.82;;;2.58;;
55136;SDS011;41032;47.818;-3.732;2022-10-26T11:50:35;8.43;;;2.20;;
55136;SDS011;41032;47.818;-3.732;2022-10-26T11:53:11;7.03;;;2.28;;
55136;SDS011;41032;47.818;-3.732;2022-10-26T11:55:52;10.25;;;2.80;;
55136;SDS011;41032;47.818;-3.732;2022-10-26T11:58:22;8.32;;;2.33;;
55136;SDS011;41032;47.818;-3.732;2022-10-26T12:00:53;11.23;;;2.85;;
55136;SDS011;41032;47.818;-3.732;2022-10-26T12:03:25;9.52;;;2.20;;
55136;SDS011;41032;47.818;-3.732;2022-10-26T12:05:58;8.93;;;2.70;;
55136;SDS011;41032;47.818;-3.732;2022-10-26T12:08:28;8.73;;;2.15;;
55136;SDS011;41032;47.818;-3.732;2022-10-26T12:11:04;9.27;;;2.33;;
55136;SDS011;41032;47.818;-3.732;2022-10-26T12:13:54;9.10;;;2.55;;
55136;SDS011;41032;47.818;-3.732;2022-10-26T12:16:33;9.07;;;2.38;;
55136;SDS011;41032;47.818;-3.732;2022-10-26T12:19:12;5.97;;;1.88;;
55136;SDS011;41032;47.818;-3.732;2022-10-26T12:21:48;8.35;;;2.47;;
55136;SDS011;41032;47.818;-3.732;2022-10-26T12:24:26;6.32;;;1.75;;
55136;SDS011;41032;47.818;-3.732;2022-10-26T12:26:59;11.43;;;2.90;;
55136;SDS011;41032;47.818;-3.732;2022-10-26T12:29:30;9.52;;;2.38;;
55136;SDS011;41032;47.818;-3.732;2022-10-26T12:32:02;8.55;;;2.13;;
55136;SDS011;41032;47.818;-3.732;2022-10-26T12:37:21;7.88;;;1.98;;
55136;SDS011;41032;47.818;-3.732;2022-10-26T12:40:48;7.75;;;1.80;;
55136;SDS011;41032;47.818;-3.732;2022-10-26T12:43:31;6.43;;;1.90;;
55136;SDS011;41032;47.818;-3.732;2022-10-26T12:45:45;6.50;;;1.90;;
55136;SDS011;41032;47.818;-3.732;2022-10-26T12:48:54;11.43;;;2.72;;
55136;SDS011;41032;47.818;-3.732;2022-10-26T12:54:33;7.25;;;1.92;;
55136;SDS011;41032;47.818;-3.732;2022-10-26T12:56:49;9.82;;;2.55;;
55136;SDS011;41032;47.818;-3.732;2022-10-26T13:04:49;9.00;;;2.13;;
55136;SDS011;41032;47.818;-3.732;2022-10-26T13:07:25;6.90;;;2.28;;
55136;SDS011;41032;47.818;-3.732;2022-10-26T13:10:01;6.28;;;1.90;;
55136;SDS011;41032;47.818;-3.732;2022-10-26T13:12:50;7.63;;;2.33;;
55136;SDS011;41032;47.818;-3.732;2022-10-26T13:18:01;6.07;;;1.55;;
55136;SDS011;41032;47.818;-3.732;2022-10-26T13:20:36;9.20;;;2.33;;
55136;SDS011;41032;47.818;-3.732;2022-10-26T13:26:00;12.60;;;2.40;;
55136;SDS011;41032;47.818;-3.732;2022-10-26T13:33:40;7.35;;;1.92;;
55136;SDS011;41032;47.818;-3.732;2022-10-26T13:38:59;5.20;;;1.70;;
55136;SDS011;41032;47.818;-3.732;2022-10-26T13:41:33;6.90;;;2.03;;
55136;SDS011;41032;47.818;-3.732;2022-10-26T13:44:04;6.68;;;2.13;;
55136;SDS011;41032;47.818;-3.732;2022-10-26T13:46:33;8.75;;;1.67;;
55136;SDS011;41032;47.818;-3.732;2022-10-26T13:49:13;8.18;;;2.13;;
55136;SDS011;41032;47.818;-3.732;2022-10-26T13:51:47;7.30;;;1.80;;
55136;SDS011;41032;47.818;-3.732;2022-10-26T13:54:19;9.48;;;2.22;;
55136;SDS011;41032;47.818;-3.732;2022-10-26T13:57:26;4.35;;;1.50;;
55136;SDS011;41032;47.818;-3.732;2022-10-26T13:59:55;4.80;;;1.30;;
55136;SDS011;41032;47.818;-3.732;2022-10-26T14:02:25;8.45;;;1.83;;
55136;SDS011;41032;47.818;-3.732;2022-10-26T14:05:00;7.95;;;2.20;;
55136;SDS011;41032;47.818;-3.732;2022-10-26T14:10:19;7.47;;;2.03;;
55136;SDS011;41032;47.818;-3.732;2022-10-26T14:12:51;6.20;;;2.17;;
55136;SDS011;41032;47.818;-3.732;2022-10-26T14:15:24;9.50;;;1.83;;
55136;SDS011;41032;47.818;-3.732;2022-10-26T14:17:55;8.35;;;1.80;;
55136;SDS011;41032;47.818;-3.732;2022-10-26T14:20:26;7.30;;;1.52;;
55136;SDS011;41032;47.818;-3.732;2022-10-26T14:22:56;10.20;;;2.40;;
55136;SDS011;41032;47.818;-3.732;2022-10-26T14:25:28;7.15;;;2.08;;
55136;SDS011;41032;47.818;-3.732;2022-10-26T14:27:57;7.65;;;1.88;;
55136;SDS011;41032;47.818;-3.732;2022-10-26T14:30:27;4.47;;;1.67;;
55136;SDS011;41032;47.818;-3.732;2022-10-26T14:32:57;6.63;;;1.70;;
55136;SDS011;41032;47.818;-3.732;2022-10-26T14:35:31;5.97;;;1.83;;
55136;SDS011;41032;47.818;-3.732;2022-10-26T14:38:01;7.32;;;2.05;;
55136;SDS011;41032;47.818;-3.732;2022-10-26T14:40:33;4.68;;;1.60;;
55136;SDS011;41032;47.818;-3.732;2022-10-26T14:43:02;6.32;;;1.95;;
55136;SDS011;41032;47.818;-3.732;2022-10-26T14:45:33;6.63;;;1.88;;
55136;SDS011;41032;47.818;-3.732;2022-10-26T14:48:04;6.53;;;1.67;;
55136;SDS011;41032;47.818;-3.732;2022-10-26T14:50:33;5.03;;;1.52;;
55136;SDS011;41032;47.818;-3.732;2022-10-26T14:53:03;3.97;;;1.50;;
55136;SDS011;41032;47.818;-3.732;2022-10-26T14:55:44;7.90;;;2.30;;
55136;SDS011;41032;47.818;-3.732;2022-10-26T14:58:25;5.93;;;1.70;;
55136;SDS011;41032;47.818;-3.732;2022-10-26T15:01:45;6.30;;;1.85;;
55136;SDS011;41032;47.818;-3.732;2022-10-26T15:03:43;5.13;;;1.70;;
55136;SDS011;41032;47.818;-3.732;2022-10-26T15:06:33;8.90;;;1.92;;
55136;SDS011;41032;47.818;-3.732;2022-10-26T15:09:00;8.93;;;1.90;;
55136;SDS011;41032;47.818;-3.732;2022-10-26T15:11:31;6.22;;;1.58;;
55136;SDS011;41032;47.818;-3.732;2022-10-26T15:14:00;7.70;;;1.70;;
55136;SDS011;41032;47.818;-3.732;2022-10-26T15:16:30;4.85;;;1.30;;
55136;SDS011;41032;47.818;-3.732;2022-10-26T15:19:10;4.38;;;1.52;;
55136;SDS011;41032;47.818;-3.732;2022-10-26T15:21:45;5.68;;;1.92;;
55136;SDS011;41032;47.818;-3.732;2022-10-26T15:24:55;5.18;;;1.63;;
55136;SDS011;41032;47.818;-3.732;2022-10-26T15:27:10;5.07;;;1.50;;
55136;SDS011;41032;47.818;-3.732;2022-10-26T15:29:40;7.30;;;1.77;;
55136;SDS011;41032;47.818;-3.732;2022-10-26T15:32:17;7.45;;;1.67;;
55136;SDS011;41032;47.818;-3.732;2022-10-26T15:34:47;6.35;;;1.70;;
55136;SDS011;41032;47.818;-3.732;2022-10-26T15:37:33;6.70;;;1.75;;
55136;SDS011;41032;47.818;-3.732;2022-10-26T15:40:01;4.55;;;1.15;;
55136;SDS011;41032;47.818;-3.732;2022-10-26T15:42:30;5.63;;;1.25;;
55136;SDS011;41032;47.818;-3.732;2022-10-26T15:44:58;4.72;;;1.30;;
55136;SDS011;41032;47.818;-3.732;2022-10-26T15:47:27;5.13;;;1.30;;
55136;SDS011;41032;47.818;-3.732;2022-10-26T15:49:59;3.58;;;1.48;;
55136;SDS011;41032;47.818;-3.732;2022-10-26T15:52:28;3.58;;;1.20;;
55136;SDS011;41032;47.818;-3.732;2022-10-26T15:54:57;4.53;;;1.42;;
55136;SDS011;41032;47.818;-3.732;2022-10-26T15:57:25;3.63;;;1.38;;
55136;SDS011;41032;47.818;-3.732;2022-10-26T15:59:55;6.18;;;1.30;;
55136;SDS011;41032;47.818;-3.732;2022-10-26T16:02:23;6.25;;;1.55;;
55136;SDS011;41032;47.818;-3.732;2022-10-26T16:04:51;5.60;;;1.67;;
55136;SDS011;41032;47.818;-3.732;2022-10-26T16:07:22;4.05;;;1.10;;
55136;SDS011;41032;47.818;-3.732;2022-10-26T16:09:52;3.45;;;1.13;;
55136;SDS011;41032;47.818;-3.732;2022-10-26T16:12:22;4.82;;;1.10;;
55136;SDS011;41032;47.818;-3.732;2022-10-26T16:14:50;4.72;;;1.38;;
55136;SDS011;41032;47.818;-3.732;2022-10-26T16:17:19;5.22;;;1.40;;
55136;SDS011;41032;47.818;-3.732;2022-10-26T16:19:47;6.70;;;1.63;;
55136;SDS011;41032;47.818;-3.732;2022-10-26T16:22:17;4.32;;;1.10;;
55136;SDS011;41032;47.818;-3.732;2022-10-26T16:24:45;3.95;;;0.95;;
55136;SDS011;41032;47.818;-3.732;2022-10-26T16:27:14;4.80;;;1.45;;
55136;SDS011;41032;47.818;-3.732;2022-10-26T16:29:43;3.42;;;1.20;;
55136;SDS011;41032;47.818;-3.732;2022-10-26T16:32:13;1.45;;;0.80;;
55136;SDS011;41032;47.818;-3.732;2022-10-26T16:34:41;4.03;;;1.50;;
55136;SDS011;41032;47.818;-3.732;2022-10-26T16:37:10;5.20;;;1.77;;
55136;SDS011;41032;47.818;-3.732;2022-10-26T16:39:38;3.30;;;0.82;;
55136;SDS011;41032;47.818;-3.732;2022-10-26T16:42:07;3.15;;;0.93;;
55136;SDS011;41032;47.818;-3.732;2022-10-26T16:44:35;2.28;;;0.90;;
55136;SDS011;41032;47.818;-3.732;2022-10-26T16:47:04;3.63;;;1.30;;
55136;SDS011;41032;47.818;-3.732;2022-10-26T16:49:32;4.38;;;1.63;;
55136;SDS011;41032;47.818;-3.732;2022-10-26T16:52:01;3.15;;;1.17;;
55136;SDS011;41032;47.818;-3.732;2022-10-26T16:54:30;4.10;;;1.33;;
55136;SDS011;41032;47.818;-3.732;2022-10-26T16:56:58;3.25;;;1.20;;
55136;SDS011;41032;47.818;-3.732;2022-10-26T16:59:26;3.22;;;1.30;;
55136;SDS011;41032;47.818;-3.732;2022-10-26T17:01:55;3.90;;;1.10;;